Terminal Aerodrome Forecast
Issued by NWS

Home | Current Version | Previous Version | Text Only | Print | Product List | Glossary On
Versions: 1 2 3 4 5 6 7 8 9 10 11 12
000
FTUS42 TJSJ 301731
TAFJPS
TAF
TJPS 301731Z 3018/3118 17010KT P6SM FEW030 BKN060
     FM302330 07005KT P6SM VCSH SCT030 BKN060
     FM311400 14008KT P6SM VCSH SCT025 BKN050
      AMD NOT SKED TIL 310300=

USA.gov is the U.S. government's official web portal to all federal, state and local government web resources and services.